sensor_id;sensor_type;location;lat;lon;timestamp;P1;durP1;ratioP1;P2;durP2;ratioP2
40537;SDS011;27925;41.874;12.526;2024-01-07T00:01:02;20.40;;;12.60;;
40537;SDS011;27925;41.874;12.526;2024-01-07T00:03:28;20.42;;;12.70;;
40537;SDS011;27925;41.874;12.526;2024-01-07T00:05:53;25.20;;;13.98;;
40537;SDS011;27925;41.874;12.526;2024-01-07T00:08:19;21.60;;;13.95;;
40537;SDS011;27925;41.874;12.526;2024-01-07T00:10:46;19.20;;;13.73;;
40537;SDS011;27925;41.874;12.526;2024-01-07T00:13:11;21.92;;;14.77;;
40537;SDS011;27925;41.874;12.526;2024-01-07T00:15:37;21.83;;;13.95;;
40537;SDS011;27925;41.874;12.526;2024-01-07T00:18:03;20.60;;;13.10;;
40537;SDS011;27925;41.874;12.526;2024-01-07T00:20:29;20.58;;;12.25;;
40537;SDS011;27925;41.874;12.526;2024-01-07T00:22:54;17.05;;;12.55;;
40537;SDS011;27925;41.874;12.526;2024-01-07T00:25:21;19.40;;;12.30;;
40537;SDS011;27925;41.874;12.526;2024-01-07T00:27:47;17.80;;;12.50;;
40537;SDS011;27925;41.874;12.526;2024-01-07T00:30:12;18.08;;;11.75;;
40537;SDS011;27925;41.874;12.526;2024-01-07T00:32:38;17.52;;;12.32;;
40537;SDS011;27925;41.874;12.526;2024-01-07T00:35:04;21.27;;;12.95;;
40537;SDS011;27925;41.874;12.526;2024-01-07T00:37:30;18.95;;;13.40;;
40537;SDS011;27925;41.874;12.526;2024-01-07T00:39:56;21.67;;;13.82;;
40537;SDS011;27925;41.874;12.526;2024-01-07T00:42:22;18.05;;;13.25;;
40537;SDS011;27925;41.874;12.526;2024-01-07T00:44:47;23.33;;;14.73;;
40537;SDS011;27925;41.874;12.526;2024-01-07T00:47:13;20.80;;;14.20;;
40537;SDS011;27925;41.874;12.526;2024-01-07T00:49:39;23.70;;;13.50;;
40537;SDS011;27925;41.874;12.526;2024-01-07T00:52:06;22.63;;;13.57;;
40537;SDS011;27925;41.874;12.526;2024-01-07T00:54:31;19.65;;;13.70;;
40537;SDS011;27925;41.874;12.526;2024-01-07T00:56:57;21.17;;;13.00;;
40537;SDS011;27925;41.874;12.526;2024-01-07T00:59:23;23.27;;;14.40;;
40537;SDS011;27925;41.874;12.526;2024-01-07T01:01:48;21.42;;;13.52;;
40537;SDS011;27925;41.874;12.526;2024-01-07T01:04:14;21.20;;;13.10;;
40537;SDS011;27925;41.874;12.526;2024-01-07T01:06:40;16.90;;;13.20;;
40537;SDS011;27925;41.874;12.526;2024-01-07T01:09:05;20.00;;;12.57;;
40537;SDS011;27925;41.874;12.526;2024-01-07T01:11:31;20.83;;;13.23;;
40537;SDS011;27925;41.874;12.526;2024-01-07T01:13:57;19.38;;;12.82;;
40537;SDS011;27925;41.874;12.526;2024-01-07T01:16:22;18.10;;;13.18;;
40537;SDS011;27925;41.874;12.526;2024-01-07T01:18:49;23.05;;;13.20;;
40537;SDS011;27925;41.874;12.526;2024-01-07T01:21:15;17.05;;;12.45;;
40537;SDS011;27925;41.874;12.526;2024-01-07T01:23:41;21.88;;;12.55;;
40537;SDS011;27925;41.874;12.526;2024-01-07T01:26:06;18.58;;;13.38;;
40537;SDS011;27925;41.874;12.526;2024-01-07T01:28:32;20.42;;;13.80;;
40537;SDS011;27925;41.874;12.526;2024-01-07T01:30:58;22.15;;;13.82;;
40537;SDS011;27925;41.874;12.526;2024-01-07T01:33:23;18.70;;;13.60;;
40537;SDS011;27925;41.874;12.526;2024-01-07T01:35:49;19.48;;;13.15;;
40537;SDS011;27925;41.874;12.526;2024-01-07T01:38:15;19.25;;;13.40;;
40537;SDS011;27925;41.874;12.526;2024-01-07T01:40:40;21.98;;;15.48;;
40537;SDS011;27925;41.874;12.526;2024-01-07T01:43:06;21.33;;;14.43;;
40537;SDS011;27925;41.874;12.526;2024-01-07T01:45:32;19.10;;;14.25;;
40537;SDS011;27925;41.874;12.526;2024-01-07T01:47:58;20.48;;;14.88;;
40537;SDS011;27925;41.874;12.526;2024-01-07T01:50:24;21.33;;;15.35;;
40537;SDS011;27925;41.874;12.526;2024-01-07T01:52:50;17.60;;;13.75;;
40537;SDS011;27925;41.874;12.526;2024-01-07T01:55:17;18.95;;;13.40;;
40537;SDS011;27925;41.874;12.526;2024-01-07T01:57:43;21.80;;;15.07;;
40537;SDS011;27925;41.874;12.526;2024-01-07T02:00:12;18.42;;;13.65;;
40537;SDS011;27925;41.874;12.526;2024-01-07T02:02:38;19.40;;;13.35;;
40537;SDS011;27925;41.874;12.526;2024-01-07T02:05:04;20.80;;;13.18;;
40537;SDS011;27925;41.874;12.526;2024-01-07T02:07:30;19.58;;;13.13;;
40537;SDS011;27925;41.874;12.526;2024-01-07T02:09:56;16.88;;;12.75;;
40537;SDS011;27925;41.874;12.526;2024-01-07T02:12:22;20.17;;;13.65;;
40537;SDS011;27925;41.874;12.526;2024-01-07T02:14:48;17.40;;;12.35;;
40537;SDS011;27925;41.874;12.526;2024-01-07T02:17:14;17.85;;;11.20;;
40537;SDS011;27925;41.874;12.526;2024-01-07T02:19:40;15.63;;;11.10;;
40537;SDS011;27925;41.874;12.526;2024-01-07T02:22:06;16.33;;;11.40;;
40537;SDS011;27925;41.874;12.526;2024-01-07T02:24:32;19.45;;;10.95;;
40537;SDS011;27925;41.874;12.526;2024-01-07T02:26:57;14.32;;;10.23;;
40537;SDS011;27925;41.874;12.526;2024-01-07T02:29:27;12.70;;;9.30;;
40537;SDS011;27925;41.874;12.526;2024-01-07T02:31:53;14.07;;;9.55;;
40537;SDS011;27925;41.874;12.526;2024-01-07T02:34:19;13.48;;;8.75;;
40537;SDS011;27925;41.874;12.526;2024-01-07T02:36:44;12.85;;;9.75;;
40537;SDS011;27925;41.874;12.526;2024-01-07T02:39:10;14.27;;;9.57;;
40537;SDS011;27925;41.874;12.526;2024-01-07T02:41:36;19.20;;;10.35;;
40537;SDS011;27925;41.874;12.526;2024-01-07T02:44:02;14.48;;;10.60;;
40537;SDS011;27925;41.874;12.526;2024-01-07T02:46:27;17.05;;;11.52;;
40537;SDS011;27925;41.874;12.526;2024-01-07T02:48:53;16.63;;;11.77;;
40537;SDS011;27925;41.874;12.526;2024-01-07T02:51:19;16.90;;;11.23;;
40537;SDS011;27925;41.874;12.526;2024-01-07T02:53:44;17.55;;;11.50;;
40537;SDS011;27925;41.874;12.526;2024-01-07T02:56:10;14.52;;;11.63;;
40537;SDS011;27925;41.874;12.526;2024-01-07T02:58:36;16.90;;;12.90;;
40537;SDS011;27925;41.874;12.526;2024-01-07T03:01:01;17.35;;;13.60;;
40537;SDS011;27925;41.874;12.526;2024-01-07T03:03:27;21.15;;;14.60;;
40537;SDS011;27925;41.874;12.526;2024-01-07T03:05:53;18.75;;;14.80;;
40537;SDS011;27925;41.874;12.526;2024-01-07T03:08:19;20.30;;;15.48;;
40537;SDS011;27925;41.874;12.526;2024-01-07T03:10:44;19.40;;;15.63;;
40537;SDS011;27925;41.874;12.526;2024-01-07T03:13:10;20.10;;;14.88;;
40537;SDS011;27925;41.874;12.526;2024-01-07T03:15:37;18.27;;;14.55;;
40537;SDS011;27925;41.874;12.526;2024-01-07T03:18:03;22.63;;;16.08;;
40537;SDS011;27925;41.874;12.526;2024-01-07T03:20:29;20.20;;;16.45;;
40537;SDS011;27925;41.874;12.526;2024-01-07T03:22:54;20.75;;;16.02;;
40537;SDS011;27925;41.874;12.526;2024-01-07T03:25:20;22.25;;;16.45;;
40537;SDS011;27925;41.874;12.526;2024-01-07T03:27:46;20.15;;;16.10;;
40537;SDS011;27925;41.874;12.526;2024-01-07T03:30:11;20.27;;;16.83;;
40537;SDS011;27925;41.874;12.526;2024-01-07T03:32:37;20.00;;;16.02;;
40537;SDS011;27925;41.874;12.526;2024-01-07T03:35:03;20.00;;;15.75;;
40537;SDS011;27925;41.874;12.526;2024-01-07T03:37:29;22.33;;;16.42;;
40537;SDS011;27925;41.874;12.526;2024-01-07T03:39:55;22.98;;;17.27;;
40537;SDS011;27925;41.874;12.526;2024-01-07T03:42:20;22.20;;;16.17;;
40537;SDS011;27925;41.874;12.526;2024-01-07T03:44:46;19.67;;;15.85;;
40537;SDS011;27925;41.874;12.526;2024-01-07T03:47:12;20.23;;;16.58;;
40537;SDS011;27925;41.874;12.526;2024-01-07T03:49:37;19.88;;;16.15;;
40537;SDS011;27925;41.874;12.526;2024-01-07T03:52:06;23.95;;;16.45;;
40537;SDS011;27925;41.874;12.526;2024-01-07T03:54:32;21.00;;;15.98;;
40537;SDS011;27925;41.874;12.526;2024-01-07T03:56:58;21.95;;;17.60;;
40537;SDS011;27925;41.874;12.526;2024-01-07T03:59:24;19.85;;;16.80;;
40537;SDS011;27925;41.874;12.526;2024-01-07T04:01:50;20.38;;;17.40;;
40537;SDS011;27925;41.874;12.526;2024-01-07T04:04:21;21.15;;;17.17;;
40537;SDS011;27925;41.874;12.526;2024-01-07T04:06:46;24.40;;;17.48;;
40537;SDS011;27925;41.874;12.526;2024-01-07T04:09:12;22.17;;;17.92;;
40537;SDS011;27925;41.874;12.526;2024-01-07T04:11:41;21.77;;;17.63;;
40537;SDS011;27925;41.874;12.526;2024-01-07T04:14:07;23.38;;;18.42;;
40537;SDS011;27925;41.874;12.526;2024-01-07T04:16:33;26.08;;;18.10;;
40537;SDS011;27925;41.874;12.526;2024-01-07T04:18:59;20.70;;;16.13;;
40537;SDS011;27925;41.874;12.526;2024-01-07T04:21:25;22.77;;;16.55;;
40537;SDS011;27925;41.874;12.526;2024-01-07T04:23:50;19.67;;;16.02;;
40537;SDS011;27925;41.874;12.526;2024-01-07T04:26:16;20.02;;;16.13;;
40537;SDS011;27925;41.874;12.526;2024-01-07T04:28:42;19.20;;;16.30;;
40537;SDS011;27925;41.874;12.526;2024-01-07T04:31:08;19.75;;;14.68;;
40537;SDS011;27925;41.874;12.526;2024-01-07T04:33:34;19.88;;;15.60;;
40537;SDS011;27925;41.874;12.526;2024-01-07T04:36:00;19.20;;;15.98;;
40537;SDS011;27925;41.874;12.526;2024-01-07T04:38:26;20.98;;;15.48;;
40537;SDS011;27925;41.874;12.526;2024-01-07T04:40:52;18.88;;;14.20;;
40537;SDS011;27925;41.874;12.526;2024-01-07T04:43:18;17.83;;;13.77;;
40537;SDS011;27925;41.874;12.526;2024-01-07T04:45:44;20.58;;;15.02;;
40537;SDS011;27925;41.874;12.526;2024-01-07T22:48:08;11.25;;;4.93;;
40537;SDS011;27925;41.874;12.526;2024-01-07T22:50:34;7.25;;;4.32;;
40537;SDS011;27925;41.874;12.526;2024-01-07T22:53:00;6.35;;;4.28;;
40537;SDS011;27925;41.874;12.526;2024-01-07T22:55:25;6.75;;;4.30;;
40537;SDS011;27925;41.874;12.526;2024-01-07T22:57:51;6.88;;;4.50;;
40537;SDS011;27925;41.874;12.526;2024-01-07T23:00:17;6.57;;;4.18;;
40537;SDS011;27925;41.874;12.526;2024-01-07T23:02:48;8.10;;;4.93;;
40537;SDS011;27925;41.874;12.526;2024-01-07T23:05:17;8.05;;;4.45;;
40537;SDS011;27925;41.874;12.526;2024-01-07T23:07:43;8.57;;;4.65;;
40537;SDS011;27925;41.874;12.526;2024-01-07T23:10:11;7.57;;;4.47;;
40537;SDS011;27925;41.874;12.526;2024-01-07T23:12:40;9.82;;;4.68;;
40537;SDS011;27925;41.874;12.526;2024-01-07T23:15:07;9.15;;;4.45;;
40537;SDS011;27925;41.874;12.526;2024-01-07T23:17:33;6.85;;;4.25;;
40537;SDS011;27925;41.874;12.526;2024-01-07T23:19:58;6.55;;;4.60;;
40537;SDS011;27925;41.874;12.526;2024-01-07T23:22:24;7.45;;;4.40;;
40537;SDS011;27925;41.874;12.526;2024-01-07T23:24:50;7.20;;;4.50;;
40537;SDS011;27925;41.874;12.526;2024-01-07T23:27:18;6.00;;;4.25;;
40537;SDS011;27925;41.874;12.526;2024-01-07T23:29:44;7.13;;;4.40;;
40537;SDS011;27925;41.874;12.526;2024-01-07T23:32:10;8.55;;;4.20;;
40537;SDS011;27925;41.874;12.526;2024-01-07T23:34:36;7.13;;;4.40;;
40537;SDS011;27925;41.874;12.526;2024-01-07T23:37:04;7.32;;;4.28;;
40537;SDS011;27925;41.874;12.526;2024-01-07T23:39:30;7.05;;;4.60;;
40537;SDS011;27925;41.874;12.526;2024-01-07T23:41:56;6.80;;;3.55;;
40537;SDS011;27925;41.874;12.526;2024-01-07T23:44:21;6.57;;;4.22;;
40537;SDS011;27925;41.874;12.526;2024-01-07T23:46:47;5.80;;;4.07;;
40537;SDS011;27925;41.874;12.526;2024-01-07T23:49:13;6.63;;;4.10;;
40537;SDS011;27925;41.874;12.526;2024-01-07T23:51:39;7.70;;;4.03;;
40537;SDS011;27925;41.874;12.526;2024-01-07T23:54:04;6.53;;;3.92;;
40537;SDS011;27925;41.874;12.526;2024-01-07T23:56:34;6.72;;;3.80;;
40537;SDS011;27925;41.874;12.526;2024-01-07T23:59:00;7.07;;;4.18;;
